createdAt,value
2018-07-30T00:01:52.158Z,23.80
2018-07-30T00:04:20.417Z,23.80
2018-07-30T00:06:48.741Z,23.70
2018-07-30T00:09:16.998Z,23.60
2018-07-30T00:11:45.239Z,23.50
2018-07-30T00:14:13.476Z,23.50
2018-07-30T00:16:41.739Z,23.40
2018-07-30T00:19:10.018Z,23.40
2018-07-30T00:21:38.267Z,23.30
2018-07-30T00:24:06.578Z,23.20
2018-07-30T00:26:34.832Z,23.10
2018-07-30T00:29:03.107Z,23.20
2018-07-30T00:31:31.487Z,23.30
2018-07-30T00:33:59.659Z,23.30
2018-07-30T00:36:27.933Z,23.20
2018-07-30T00:38:56.197Z,23.20
2018-07-30T00:41:24.473Z,23.30
2018-07-30T00:43:52.737Z,23.20
2018-07-30T00:46:20.994Z,23.20
2018-07-30T00:48:49.312Z,23.10
2018-07-30T00:51:17.603Z,23.00
2018-07-30T00:53:45.818Z,22.90
2018-07-30T00:56:14.081Z,23.00
2018-07-30T00:58:42.320Z,23.00
2018-07-30T01:01:10.631Z,22.90
2018-07-30T01:03:38.914Z,22.80
2018-07-30T01:06:07.162Z,22.90
2018-07-30T01:08:35.416Z,22.80
2018-07-30T01:11:03.710Z,22.70
2018-07-30T01:13:31.956Z,22.80
2018-07-30T01:16:00.220Z,22.80
2018-07-30T01:18:28.520Z,22.80
2018-07-30T01:20:56.818Z,22.70
2018-07-30T01:23:25.118Z,22.60
2018-07-30T01:25:53.382Z,22.60
2018-07-30T01:28:21.652Z,22.50
2018-07-30T01:30:49.975Z,22.50
2018-07-30T01:33:18.235Z,22.50
2018-07-30T01:35:46.512Z,22.40
2018-07-30T01:38:14.835Z,22.30
2018-07-30T01:40:43.083Z,22.20
2018-07-30T01:43:11.366Z,22.20
2018-07-30T01:45:39.670Z,22.20
2018-07-30T01:48:08.431Z,22.20
2018-07-30T01:50:36.721Z,22.20
2018-07-30T01:53:05.267Z,22.10
2018-07-30T01:55:33.517Z,22.10
2018-07-30T01:58:01.768Z,22.10
2018-07-30T02:00:30.042Z,22.20
2018-07-30T02:02:58.332Z,22.30
2018-07-30T02:05:26.652Z,22.30
2018-07-30T02:07:54.944Z,22.20
2018-07-30T02:10:24.205Z,22.10
2018-07-30T02:12:52.447Z,22.00
2018-07-30T02:15:20.708Z,22.00
2018-07-30T02:17:48.924Z,22.00
2018-07-30T02:20:17.350Z,21.90
2018-07-30T02:22:45.580Z,21.80
2018-07-30T02:25:13.867Z,21.80
2018-07-30T02:27:42.141Z,21.80
2018-07-30T02:30:11.071Z,21.80
2018-07-30T02:32:39.306Z,21.90
2018-07-30T02:35:08.568Z,21.80
2018-07-30T02:37:36.841Z,21.80
2018-07-30T02:40:05.818Z,21.80
2018-07-30T02:42:34.048Z,21.80
2018-07-30T02:47:31.101Z,21.80
2018-07-30T02:49:59.424Z,21.70
2018-07-30T02:52:27.695Z,21.70
2018-07-30T02:54:56.005Z,21.70
2018-07-30T02:57:24.234Z,21.70
2018-07-30T02:59:52.489Z,21.80
2018-07-30T03:02:20.796Z,21.70
2018-07-30T03:04:49.046Z,21.70
2018-07-30T03:07:17.317Z,21.60
2018-07-30T03:09:45.577Z,21.50
2018-07-30T03:12:13.840Z,21.40
2018-07-30T03:14:42.107Z,21.40
2018-07-30T03:17:10.454Z,21.30
2018-07-30T03:19:39.394Z,21.20
2018-07-30T03:22:07.688Z,21.20
2018-07-30T03:24:35.971Z,21.10
2018-07-30T03:29:32.270Z,21.00
2018-07-30T03:32:00.533Z,21.00
2018-07-30T03:34:29.427Z,20.90
2018-07-30T03:36:57.716Z,20.90
2018-07-30T03:39:25.991Z,20.90
2018-07-30T03:41:54.291Z,20.90
2018-07-30T03:44:22.636Z,20.90
2018-07-30T03:46:50.912Z,20.90
2018-07-30T03:49:19.189Z,20.90
2018-07-30T03:51:47.534Z,20.90
2018-07-30T03:54:15.782Z,20.80
2018-07-30T03:56:44.036Z,20.80
2018-07-30T03:59:12.334Z,20.90
2018-07-30T04:01:40.610Z,20.90
2018-07-30T04:04:08.871Z,20.90
2018-07-30T04:06:37.116Z,20.90
2018-07-30T04:09:06.608Z,21.00
2018-07-30T04:11:34.928Z,21.00
2018-07-30T04:14:03.206Z,20.90
2018-07-30T04:16:35.795Z,20.90
2018-07-30T04:19:04.192Z,20.90
2018-07-30T04:21:32.426Z,21.00
2018-07-30T04:24:00.740Z,21.00
2018-07-30T04:26:28.980Z,21.10
2018-07-30T04:28:57.268Z,21.00
2018-07-30T04:31:25.491Z,21.00
2018-07-30T04:33:53.914Z,21.10
2018-07-30T04:36:22.196Z,20.90
2018-07-30T04:38:50.535Z,21.00
2018-07-30T04:41:18.764Z,21.00
2018-07-30T04:43:47.070Z,20.90
2018-07-30T04:46:15.337Z,21.00
2018-07-30T04:51:11.655Z,21.30
2018-07-30T04:53:39.922Z,21.30
2018-07-30T04:56:08.191Z,21.40
2018-07-30T04:58:36.463Z,21.40
2018-07-30T05:01:04.737Z,21.50
2018-07-30T05:03:33.004Z,21.50
2018-07-30T05:06:01.237Z,21.40
2018-07-30T05:08:29.496Z,21.30
2018-07-30T05:10:57.749Z,21.30
2018-07-30T05:13:26.074Z,21.30
2018-07-30T05:15:54.326Z,21.30
2018-07-30T05:18:22.614Z,21.40
2018-07-30T05:20:50.919Z,21.50
2018-07-30T05:23:19.223Z,21.50
2018-07-30T05:25:47.508Z,21.50
2018-07-30T05:28:16.575Z,21.70
2018-07-30T05:30:44.866Z,21.70
2018-07-30T05:33:13.114Z,21.90
2018-07-30T05:35:41.359Z,22.00
2018-07-30T05:38:09.638Z,22.00
2018-07-30T05:40:37.879Z,22.00
2018-07-30T05:43:06.159Z,22.10
2018-07-30T05:45:34.468Z,22.20
2018-07-30T05:48:02.755Z,22.40
2018-07-30T05:50:31.014Z,22.50
2018-07-30T05:52:59.291Z,22.50
2018-07-30T05:55:27.587Z,22.60
2018-07-30T05:57:55.854Z,22.70
2018-07-30T06:00:24.305Z,22.70
2018-07-30T06:02:53.148Z,22.90
2018-07-30T06:05:21.417Z,23.10
2018-07-30T06:07:49.717Z,23.30
2018-07-30T06:10:17.976Z,23.40
2018-07-30T06:12:46.229Z,23.60
2018-07-30T06:15:14.551Z,23.90
2018-07-30T06:17:42.779Z,24.10
2018-07-30T06:20:11.638Z,24.30
2018-07-30T06:22:40.400Z,24.40
2018-07-30T06:25:08.802Z,24.50
2018-07-30T06:27:37.281Z,24.40
2018-07-30T06:30:06.939Z,24.40
2018-07-30T06:35:03.926Z,24.60
2018-07-30T06:37:32.202Z,24.50
2018-07-30T06:40:01.091Z,24.80
2018-07-30T06:42:29.368Z,25.00
2018-07-30T06:44:57.857Z,25.30
2018-07-30T06:47:26.142Z,25.80
2018-07-30T06:49:54.442Z,26.20
2018-07-30T06:52:22.860Z,26.40
2018-07-30T06:54:51.108Z,26.20
2018-07-30T06:57:19.338Z,26.30
2018-07-30T06:59:47.606Z,26.20
2018-07-30T07:02:15.919Z,26.30
2018-07-30T07:04:44.173Z,26.30
2018-07-30T07:07:12.430Z,26.50
2018-07-30T07:09:40.695Z,26.70
2018-07-30T07:12:08.991Z,26.60
2018-07-30T07:14:37.292Z,26.80
2018-07-30T07:17:08.816Z,27.00
2018-07-30T07:19:37.323Z,27.10
2018-07-30T07:22:05.740Z,27.30
2018-07-30T07:24:33.991Z,27.70
2018-07-30T07:27:02.276Z,28.00
2018-07-30T07:29:30.514Z,28.10
2018-07-30T07:31:58.775Z,28.10
2018-07-30T07:34:27.031Z,28.40
2018-07-30T07:36:55.346Z,29.00
2018-07-30T07:39:23.619Z,29.70
2018-07-30T07:41:51.846Z,30.20
2018-07-30T07:46:48.252Z,30.50
2018-07-30T07:49:16.518Z,30.70
2018-07-30T07:51:44.820Z,30.30
2018-07-30T07:54:13.174Z,30.30
2018-07-30T07:56:41.467Z,30.60
2018-07-30T07:59:09.761Z,30.50
2018-07-30T08:01:38.026Z,30.50
2018-07-30T08:04:06.325Z,30.20
2018-07-30T08:09:02.570Z,30.80
2018-07-30T08:11:30.854Z,31.10
2018-07-30T08:13:59.924Z,31.40
2018-07-30T08:16:28.239Z,31.70
2018-07-30T08:18:56.447Z,32.10
2018-07-30T08:21:24.738Z,32.10
2018-07-30T08:23:53.007Z,31.90
2018-07-30T08:26:21.508Z,32.00
2018-07-30T08:28:49.820Z,32.10
2018-07-30T08:31:18.104Z,31.90
2018-07-30T08:33:46.362Z,32.40
2018-07-30T08:36:14.662Z,33.20
2018-07-30T08:38:42.908Z,33.40
2018-07-30T08:46:07.229Z,33.20
2018-07-30T08:48:35.488Z,33.10
2018-07-30T08:51:03.766Z,33.30
2018-07-30T08:53:32.007Z,33.30
2018-07-30T08:56:00.347Z,33.20
2018-07-30T08:58:28.646Z,33.40
2018-07-30T09:00:56.897Z,33.30
2018-07-30T09:03:25.205Z,33.80
2018-07-30T09:05:53.534Z,33.90
2018-07-30T09:08:21.799Z,34.20
2018-07-30T09:10:50.766Z,34.80
2018-07-30T09:13:19.200Z,35.60
2018-07-30T09:15:47.528Z,35.30
2018-07-30T09:18:15.814Z,35.50
2018-07-30T09:20:44.132Z,36.30
2018-07-30T09:23:12.394Z,37.00
2018-07-30T09:25:40.713Z,37.30
2018-07-30T09:28:08.999Z,37.70
2018-07-30T09:30:37.298Z,37.80
2018-07-30T09:33:05.706Z,38.20
2018-07-30T09:35:33.923Z,38.90
2018-07-30T09:38:02.196Z,38.90
2018-07-30T09:40:30.481Z,39.80
2018-07-30T09:42:59.746Z,40.00
2018-07-30T09:45:28.077Z,41.10
2018-07-30T09:47:56.339Z,41.10
2018-07-30T09:50:24.638Z,39.30
2018-07-30T09:52:52.964Z,39.30
2018-07-30T09:55:21.219Z,39.80
2018-07-30T09:57:49.523Z,40.30
2018-07-30T10:00:22.083Z,40.40
2018-07-30T10:02:50.379Z,41.20
2018-07-30T10:05:18.642Z,41.10
2018-07-30T10:07:46.929Z,41.30
2018-07-30T10:10:15.186Z,42.10
2018-07-30T10:12:43.515Z,42.70
2018-07-30T10:15:11.758Z,43.50
2018-07-30T10:17:40.079Z,43.70
2018-07-30T10:20:08.536Z,43.60
2018-07-30T10:22:36.758Z,43.30
2018-07-30T10:25:05.070Z,42.70
2018-07-30T10:27:33.338Z,43.70
2018-07-30T10:30:01.651Z,43.50
2018-07-30T10:32:30.647Z,43.10
2018-07-30T10:34:58.915Z,43.40
2018-07-30T10:37:27.171Z,43.90
2018-07-30T10:39:55.474Z,43.60
2018-07-30T10:42:23.691Z,44.30
2018-07-30T10:47:20.074Z,45.20
2018-07-30T10:49:48.295Z,44.60
2018-07-30T10:52:17.272Z,45.10
2018-07-30T10:54:45.564Z,45.90
2018-07-30T10:57:13.995Z,45.70
2018-07-30T10:59:42.281Z,46.40
2018-07-30T11:02:10.513Z,47.40
2018-07-30T11:07:09.742Z,47.90
2018-07-30T11:09:38.389Z,46.00
2018-07-30T11:12:06.635Z,45.70
2018-07-30T11:14:34.963Z,45.00
2018-07-30T11:19:31.476Z,46.90
2018-07-30T11:21:59.700Z,45.90
2018-07-30T11:24:28.027Z,46.00
2018-07-30T11:26:56.278Z,47.20
2018-07-30T11:29:24.581Z,46.60
2018-07-30T11:31:52.845Z,44.90
2018-07-30T11:34:21.171Z,45.20
2018-07-30T11:36:49.567Z,45.40
2018-07-30T11:39:17.837Z,46.10
2018-07-30T11:44:14.071Z,46.30
2018-07-30T11:46:42.349Z,47.40
2018-07-30T11:49:10.626Z,47.90
2018-07-30T11:54:06.975Z,44.50
2018-07-30T11:56:35.159Z,44.90
2018-07-30T11:59:03.425Z,46.10
2018-07-30T12:03:59.735Z,43.40
2018-07-30T12:06:28.047Z,42.20
2018-07-30T12:08:56.314Z,41.50
2018-07-30T12:11:24.567Z,42.20
2018-07-30T12:13:52.813Z,42.90
2018-07-30T12:16:21.163Z,44.60
2018-07-30T12:18:49.439Z,44.90
2018-07-30T12:21:17.877Z,45.20
2018-07-30T12:23:46.149Z,45.70
2018-07-30T12:26:14.374Z,42.20
2018-07-30T12:28:42.618Z,40.20
2018-07-30T12:31:10.880Z,39.90
2018-07-30T12:33:39.182Z,39.10
2018-07-30T12:43:31.474Z,37.10
2018-07-30T12:45:59.763Z,36.90
2018-07-30T12:48:28.039Z,37.30
2018-07-30T12:50:56.299Z,37.80
2018-07-30T12:53:24.547Z,38.10
2018-07-30T12:55:52.915Z,37.60
2018-07-30T12:58:21.211Z,37.60
2018-07-30T13:00:49.444Z,38.20
2018-07-30T13:03:17.743Z,39.20
2018-07-30T13:05:45.961Z,40.10
2018-07-30T13:08:14.232Z,40.50
2018-07-30T13:10:42.495Z,39.90
2018-07-30T13:13:10.748Z,39.00
2018-07-30T13:15:39.012Z,38.80
2018-07-30T13:18:07.832Z,38.50
2018-07-30T13:20:36.164Z,39.20
2018-07-30T13:23:04.408Z,38.60
2018-07-30T13:25:32.653Z,38.30
2018-07-30T13:28:00.911Z,38.50
2018-07-30T13:30:29.222Z,38.60
2018-07-30T13:35:25.495Z,39.60
2018-07-30T13:37:53.866Z,39.90
2018-07-30T13:40:22.407Z,39.30
2018-07-30T13:42:50.746Z,38.90
2018-07-30T13:45:19.046Z,39.10
2018-07-30T13:47:47.356Z,38.70
2018-07-30T13:50:15.648Z,38.50
2018-07-30T13:55:11.907Z,38.00
2018-07-30T13:57:40.165Z,37.90
2018-07-30T14:00:09.982Z,37.70
2018-07-30T14:05:06.426Z,38.20
2018-07-30T14:10:02.714Z,37.70
2018-07-30T14:12:30.931Z,37.80
2018-07-30T14:14:59.231Z,37.80
2018-07-30T14:19:55.726Z,37.90
2018-07-30T14:22:24.643Z,37.50
2018-07-30T14:24:53.004Z,37.10
2018-07-30T14:27:21.274Z,37.20
2018-07-30T14:29:49.542Z,37.50
2018-07-30T14:32:17.794Z,37.70
2018-07-30T14:34:46.111Z,37.60
2018-07-30T14:37:14.448Z,37.90
2018-07-30T14:39:42.746Z,37.80
2018-07-30T14:42:11.859Z,37.60
2018-07-30T14:44:40.098Z,37.30
2018-07-30T14:47:08.346Z,37.20
2018-07-30T14:49:36.627Z,36.90
2018-07-30T14:52:04.986Z,36.90
2018-07-30T14:54:33.267Z,37.00
2018-07-30T14:57:07.975Z,36.90
2018-07-30T14:59:36.340Z,36.70
2018-07-30T15:02:04.633Z,36.70
2018-07-30T15:04:32.954Z,36.40
2018-07-30T15:07:01.247Z,36.00
2018-07-30T15:09:29.505Z,35.90
2018-07-30T15:11:57.752Z,35.90
2018-07-30T15:14:26.046Z,35.90
2018-07-30T15:16:54.841Z,35.90
2018-07-30T15:19:23.111Z,36.00
2018-07-30T15:24:19.415Z,36.50
2018-07-30T15:26:47.687Z,36.20
2018-07-30T15:29:15.975Z,36.10
2018-07-30T15:31:44.311Z,36.20
2018-07-30T15:34:12.810Z,36.10
2018-07-30T15:36:41.663Z,36.00
2018-07-30T15:41:38.910Z,36.10
2018-07-30T15:44:07.443Z,36.00
2018-07-30T15:46:36.209Z,36.10
2018-07-30T15:49:04.475Z,36.20
2018-07-30T15:54:00.966Z,36.60
2018-07-30T15:56:29.760Z,36.40
2018-07-30T15:58:58.083Z,36.60
2018-07-30T16:03:54.703Z,36.40
2018-07-30T16:06:23.172Z,36.60
2018-07-30T16:08:51.630Z,36.70
2018-07-30T16:11:19.897Z,36.70
2018-07-30T16:13:48.213Z,36.60
2018-07-30T16:16:16.455Z,36.70
2018-07-30T16:18:44.676Z,36.60
2018-07-30T16:21:13.556Z,36.40
2018-07-30T16:23:41.882Z,36.30
2018-07-30T16:26:10.172Z,36.10
2018-07-30T16:28:38.467Z,36.20
2018-07-30T16:31:06.776Z,36.30
2018-07-30T16:33:35.069Z,36.30
2018-07-30T16:36:03.322Z,36.50
2018-07-30T16:38:31.595Z,36.50
2018-07-30T16:40:59.907Z,36.40
2018-07-30T16:43:28.210Z,36.30
2018-07-30T16:45:56.536Z,36.10
2018-07-30T16:48:24.866Z,36.00
2018-07-30T16:50:53.169Z,36.20
2018-07-30T16:53:21.527Z,36.20
2018-07-30T16:55:50.018Z,36.20
2018-07-30T16:58:18.241Z,36.00
2018-07-30T17:00:46.967Z,35.90
2018-07-30T17:03:15.270Z,35.80
2018-07-30T17:05:43.558Z,35.60
2018-07-30T17:08:11.853Z,35.50
2018-07-30T17:10:40.241Z,35.30
2018-07-30T17:13:08.572Z,35.30
2018-07-30T17:15:36.823Z,35.40
2018-07-30T17:18:05.128Z,35.40
2018-07-30T17:20:33.353Z,35.40
2018-07-30T17:25:29.682Z,35.20
2018-07-30T17:27:57.926Z,35.10
2018-07-30T17:30:26.203Z,35.10
2018-07-30T17:32:54.458Z,35.10
2018-07-30T17:35:28.999Z,34.90
2018-07-30T17:37:57.802Z,34.80
2018-07-30T17:40:26.176Z,34.80
2018-07-30T17:42:54.450Z,34.80
2018-07-30T17:45:22.758Z,34.40
2018-07-30T17:47:51.018Z,34.30
2018-07-30T17:50:19.361Z,34.40
2018-07-30T17:52:47.938Z,34.60
2018-07-30T17:55:16.233Z,34.50
2018-07-30T17:57:44.647Z,34.50
2018-07-30T18:00:12.958Z,34.40
2018-07-30T18:02:41.225Z,34.30
2018-07-30T18:05:09.592Z,34.30
2018-07-30T18:07:37.929Z,34.30
2018-07-30T18:10:06.412Z,34.20
2018-07-30T18:12:34.691Z,34.20
2018-07-30T18:15:03.029Z,34.00
2018-07-30T18:17:31.301Z,34.00
2018-07-30T18:19:59.574Z,33.90
2018-07-30T18:22:27.907Z,33.90
2018-07-30T18:24:56.180Z,33.80
2018-07-30T18:27:24.440Z,33.70
2018-07-30T18:29:52.729Z,33.70
2018-07-30T18:32:21.011Z,33.60
2018-07-30T18:34:49.321Z,33.60
2018-07-30T18:39:45.597Z,33.50
2018-07-30T18:42:13.893Z,33.40
2018-07-30T18:44:42.174Z,33.40
2018-07-30T18:47:10.499Z,33.30
2018-07-30T18:49:38.817Z,33.20
2018-07-30T18:52:07.211Z,33.30
2018-07-30T18:54:35.534Z,33.20
2018-07-30T18:57:03.824Z,33.10
2018-07-30T18:59:32.092Z,32.90
2018-07-30T19:02:00.324Z,32.90
2018-07-30T19:04:28.576Z,32.80
2018-07-30T19:06:56.808Z,32.80
2018-07-30T19:09:25.062Z,32.70
2018-07-30T19:11:53.311Z,32.60
2018-07-30T19:14:21.531Z,32.50
2018-07-30T19:19:20.513Z,32.30
2018-07-30T19:21:49.048Z,32.30
2018-07-30T19:24:17.834Z,32.00
2018-07-30T19:29:14.380Z,31.80
2018-07-30T19:31:42.684Z,31.70
2018-07-30T19:34:10.970Z,31.70
2018-07-30T19:36:40.036Z,31.50
2018-07-30T19:39:10.848Z,31.50
2018-07-30T19:41:39.219Z,31.40
2018-07-30T19:44:08.096Z,31.30
2018-07-30T19:46:36.479Z,31.20
2018-07-30T19:49:05.184Z,31.00
2018-07-30T19:51:34.226Z,31.00
2018-07-30T19:54:02.502Z,30.90
2018-07-30T19:56:30.778Z,30.70
2018-07-30T19:58:59.281Z,30.60
2018-07-30T20:01:27.316Z,30.60
2018-07-30T20:03:55.589Z,30.50
2018-07-30T20:06:23.922Z,30.40
2018-07-30T20:08:52.329Z,30.30
2018-07-30T20:11:20.604Z,30.20
2018-07-30T20:13:48.899Z,30.20
2018-07-30T20:16:17.193Z,30.20
2018-07-30T20:18:45.450Z,30.10
2018-07-30T20:21:13.740Z,30.00
2018-07-30T20:23:42.048Z,29.90
2018-07-30T20:26:10.289Z,29.80
2018-07-30T20:28:38.596Z,29.70
2018-07-30T20:31:07.342Z,29.60
2018-07-30T20:33:35.708Z,29.60
2018-07-30T20:36:03.922Z,29.50
2018-07-30T20:38:32.222Z,29.50
2018-07-30T20:41:00.557Z,29.50
2018-07-30T20:43:28.867Z,29.30
2018-07-30T20:45:57.142Z,29.30
2018-07-30T20:48:25.423Z,29.30
2018-07-30T20:50:53.644Z,29.20
2018-07-30T20:53:21.902Z,29.10
2018-07-30T20:55:50.142Z,29.10
2018-07-30T20:58:18.439Z,29.10
2018-07-30T21:03:14.685Z,28.90
2018-07-30T21:05:43.705Z,28.90
2018-07-30T21:08:13.522Z,28.80
2018-07-30T21:10:42.679Z,28.70
2018-07-30T21:13:10.903Z,28.70
2018-07-30T21:15:39.151Z,28.70
2018-07-30T21:18:07.436Z,28.60
2018-07-30T21:20:35.824Z,28.50
2018-07-30T21:23:04.117Z,28.60
2018-07-30T21:25:32.414Z,28.60
2018-07-30T21:28:00.697Z,28.60
2018-07-30T21:30:29.007Z,28.50
2018-07-30T21:32:57.379Z,28.40
2018-07-30T21:35:25.692Z,28.30
2018-07-30T21:37:53.961Z,28.20
2018-07-30T21:40:22.185Z,28.20
2018-07-30T21:42:50.585Z,28.20
2018-07-30T21:47:46.894Z,28.00
2018-07-30T21:50:15.212Z,28.00
2018-07-30T21:52:43.456Z,27.90
2018-07-30T21:55:11.839Z,27.90
2018-07-30T21:57:40.106Z,27.80
2018-07-30T22:00:12.822Z,27.80
2018-07-30T22:05:12.574Z,27.70
2018-07-30T22:07:40.824Z,27.70
2018-07-30T22:10:09.097Z,27.60
2018-07-30T22:12:37.424Z,27.50
2018-07-30T22:15:05.708Z,27.50
2018-07-30T22:17:33.938Z,27.50
2018-07-30T22:20:02.446Z,27.40
2018-07-30T22:22:30.725Z,27.40
2018-07-30T22:24:59.007Z,27.30
2018-07-30T22:27:27.268Z,27.40
2018-07-30T22:29:55.613Z,27.20
2018-07-30T22:34:52.118Z,27.10
2018-07-30T22:37:20.513Z,27.10
2018-07-30T22:39:48.751Z,27.00
2018-07-30T22:42:17.068Z,27.00
2018-07-30T22:44:45.338Z,26.90
2018-07-30T22:47:13.614Z,26.90
2018-07-30T22:49:41.919Z,26.80
2018-07-30T22:52:10.260Z,26.70
2018-07-30T22:54:38.515Z,26.80
2018-07-30T22:57:06.771Z,26.70
2018-07-30T22:59:35.066Z,26.60
2018-07-30T23:02:03.311Z,26.60
2018-07-30T23:06:59.679Z,26.40
2018-07-30T23:09:27.971Z,26.50
2018-07-30T23:11:56.185Z,26.40
2018-07-30T23:14:24.942Z,26.40
2018-07-30T23:16:53.237Z,26.40
2018-07-30T23:19:21.523Z,26.30
2018-07-30T23:21:49.823Z,26.30
2018-07-30T23:26:46.115Z,26.20
2018-07-30T23:29:14.448Z,26.10
2018-07-30T23:34:10.673Z,26.00
2018-07-30T23:36:38.977Z,26.00
2018-07-30T23:39:09.038Z,25.90
2018-07-30T23:41:37.331Z,25.90
2018-07-30T23:44:05.608Z,25.80
2018-07-30T23:46:33.893Z,25.80
2018-07-30T23:49:02.163Z,25.80
2018-07-30T23:51:30.677Z,25.80
2018-07-30T23:53:58.995Z,25.80
2018-07-30T23:56:27.672Z,25.70
2018-07-30T23:58:55.922Z,25.50
